createdAt,value
2023-05-13T00:03:40.591Z,-0.58
2023-05-13T00:08:44.696Z,-0.41
2023-05-13T00:13:48.486Z,0.04
2023-05-13T00:18:52.784Z,0.34
2023-05-13T00:23:56.710Z,0.62
2023-05-13T00:29:01.142Z,0.93
2023-05-13T00:34:05.088Z,1.26
2023-05-13T00:39:09.170Z,1.57
2023-05-13T00:44:14.638Z,1.92
2023-05-13T00:49:18.754Z,2.20
2023-05-13T00:54:22.932Z,2.45
2023-05-13T00:59:31.431Z,2.65
2023-05-13T01:05:00.875Z,3.20
2023-05-13T01:10:16.507Z,3.47
2023-05-13T01:15:26.241Z,3.71
2023-05-13T01:20:32.411Z,4.15
2023-05-13T01:25:36.376Z,4.54
2023-05-13T01:30:40.660Z,4.79
2023-05-13T01:35:48.636Z,4.87
2023-05-13T01:40:55.812Z,5.04
2023-05-13T01:46:01.485Z,5.31
2023-05-13T01:51:05.735Z,5.36
2023-05-13T01:56:11.631Z,5.61
2023-05-13T02:01:15.733Z,5.62
2023-05-13T02:06:20.260Z,5.77
2023-05-13T02:12:01.447Z,5.62
2023-05-13T02:17:06.219Z,5.44
2023-05-13T02:22:10.325Z,5.25
2023-05-13T02:27:17.236Z,5.42
2023-05-13T02:32:21.071Z,5.77
2023-05-13T02:37:25.533Z,6.07
2023-05-13T02:42:36.843Z,6.19
2023-05-13T02:47:41.430Z,6.11
2023-05-13T02:52:45.376Z,6.32
2023-05-13T02:57:49.866Z,6.17
2023-05-13T03:02:54.580Z,6.20
2023-05-13T03:07:58.897Z,6.23
2023-05-13T03:13:02.921Z,5.96
2023-05-13T03:18:06.911Z,5.86
2023-05-13T03:23:13.342Z,6.16
2023-05-13T03:28:19.025Z,6.23
2023-05-13T03:33:23.503Z,6.12
2023-05-13T03:38:27.423Z,6.02
2023-05-13T03:43:31.684Z,5.73
2023-05-13T03:48:39.091Z,5.80
2023-05-13T03:53:43.766Z,5.33
2023-05-13T03:58:47.845Z,5.38
2023-05-13T04:03:51.923Z,5.30
2023-05-13T04:08:56.039Z,5.75
2023-05-13T04:14:00.188Z,6.03
2023-05-13T04:19:05.133Z,6.18
2023-05-13T04:24:09.180Z,6.40
2023-05-13T04:29:13.337Z,6.04
2023-05-13T04:34:17.978Z,5.81
2023-05-13T04:39:24.099Z,5.50
2023-05-13T04:44:27.987Z,5.57
2023-05-13T04:49:32.130Z,5.71
2023-05-13T04:54:39.018Z,5.93
2023-05-13T04:59:44.127Z,5.83
2023-05-13T05:04:49.979Z,5.80
2023-05-13T05:09:54.710Z,5.79
2023-05-13T05:14:58.709Z,5.77
2023-05-13T05:20:04.307Z,5.85
2023-05-13T05:25:10.373Z,5.75
2023-05-13T05:30:15.164Z,5.31
2023-05-13T05:35:21.995Z,4.86
2023-05-13T05:40:27.051Z,4.96
2023-05-13T05:45:31.155Z,4.97
2023-05-13T05:50:37.357Z,6.19
2023-05-13T05:55:43.969Z,6.25
2023-05-13T06:00:48.060Z,6.13
2023-05-13T06:05:52.251Z,6.17
2023-05-13T06:10:57.716Z,5.92
2023-05-13T06:16:02.929Z,6.02
2023-05-13T06:21:06.983Z,6.14
2023-05-13T06:26:11.094Z,5.95
2023-05-13T06:31:15.732Z,5.54
2023-05-13T06:36:21.281Z,5.64
2023-05-13T06:41:25.695Z,6.27
2023-05-13T06:46:35.157Z,6.96
2023-05-13T06:51:39.225Z,6.57
2023-05-13T06:56:43.501Z,6.25
2023-05-13T07:01:47.578Z,6.20
2023-05-13T07:06:52.650Z,6.16
2023-05-13T07:11:56.526Z,5.86
2023-05-13T07:17:00.742Z,5.87
2023-05-13T07:22:04.878Z,5.93
2023-05-13T07:27:08.757Z,6.21
2023-05-13T07:32:12.973Z,6.51
2023-05-13T07:37:16.891Z,6.91
2023-05-13T07:42:21.077Z,6.64
2023-05-13T07:47:25.268Z,6.81
2023-05-13T07:52:29.295Z,6.65
2023-05-13T07:57:33.343Z,6.15
2023-05-13T08:02:40.364Z,5.80
2023-05-13T08:07:44.391Z,5.56
2023-05-13T08:12:52.917Z,6.76
2023-05-13T08:17:56.772Z,6.79
2023-05-13T08:23:02.849Z,6.51
2023-05-13T08:28:08.171Z,5.97
2023-05-13T08:33:13.040Z,6.26
2023-05-13T08:38:17.191Z,6.42
2023-05-13T08:43:24.935Z,6.36
2023-05-13T08:48:29.078Z,5.99
2023-05-13T08:53:35.312Z,6.01
2023-05-13T08:58:39.528Z,6.34
2023-05-13T09:04:03.446Z,6.58
2023-05-13T09:09:07.783Z,6.68
2023-05-13T09:14:12.974Z,6.65
2023-05-13T09:19:17.159Z,6.47
2023-05-13T09:24:24.622Z,6.13
2023-05-13T09:29:31.887Z,6.58
2023-05-13T09:34:36.389Z,6.46
2023-05-13T09:39:42.360Z,6.31
2023-05-13T09:44:48.666Z,6.35
2023-05-13T09:49:58.796Z,6.27
2023-05-13T09:55:07.370Z,6.55
2023-05-13T10:00:18.130Z,7.04
2023-05-13T10:05:31.127Z,7.02
2023-05-13T10:10:36.731Z,7.01
2023-05-13T10:15:52.887Z,6.90
2023-05-13T10:20:58.054Z,6.68
2023-05-13T10:26:02.979Z,6.43
2023-05-13T10:31:07.047Z,6.49
2023-05-13T10:36:47.356Z,7.03
2023-05-13T10:42:24.154Z,6.69
2023-05-13T10:47:28.734Z,6.56
2023-05-13T10:52:48.639Z,6.43
2023-05-13T10:58:23.486Z,6.46
2023-05-13T11:03:30.197Z,6.41
2023-05-13T11:08:56.088Z,6.36
2023-05-13T11:14:00.588Z,6.41
2023-05-13T11:19:10.380Z,6.44
2023-05-13T11:24:19.705Z,6.37
2023-05-13T11:29:33.782Z,6.42
2023-05-13T11:34:38.525Z,6.55
2023-05-13T11:40:20.021Z,6.64
2023-05-13T11:45:27.657Z,6.78
2023-05-13T11:50:33.180Z,6.66
2023-05-13T11:55:37.464Z,6.04
2023-05-13T12:00:41.628Z,6.47
2023-05-13T12:05:46.022Z,6.88
2023-05-13T12:10:50.165Z,6.62
2023-05-13T12:15:55.093Z,6.63
2023-05-13T12:20:59.683Z,6.63
2023-05-13T12:26:09.481Z,6.73
2023-05-13T12:31:16.786Z,6.65
2023-05-13T12:36:22.196Z,6.64
2023-05-13T12:41:27.791Z,6.60
2023-05-13T12:52:55.096Z,7.16
2023-05-13T12:58:04.393Z,6.93
2023-05-13T13:03:08.640Z,6.41
2023-05-13T13:08:12.954Z,6.18
2023-05-13T13:13:16.970Z,6.08
2023-05-13T13:18:21.145Z,5.98
2023-05-13T13:23:25.361Z,5.89
2023-05-13T13:28:29.603Z,5.82
2023-05-13T13:33:33.694Z,5.76
2023-05-13T13:38:37.765Z,5.67
2023-05-13T13:43:43.525Z,5.60
2023-05-13T13:48:47.376Z,5.53
2023-05-13T13:53:51.789Z,5.34
2023-05-13T13:58:56.140Z,5.38
2023-05-13T14:04:16.093Z,4.89
2023-05-13T14:09:20.371Z,5.03
2023-05-13T14:14:25.778Z,4.93
2023-05-13T14:19:29.879Z,4.91
2023-05-13T14:24:34.107Z,4.81
2023-05-13T14:29:38.382Z,4.71
2023-05-13T14:34:42.622Z,4.48
2023-05-13T14:39:49.183Z,3.98
2023-05-13T14:44:54.580Z,3.65
2023-05-13T14:49:58.543Z,3.37
2023-05-13T14:55:03.047Z,3.09
2023-05-13T15:00:08.162Z,2.94
2023-05-13T15:05:12.054Z,2.57
2023-05-13T15:10:17.413Z,1.81
2023-05-13T15:15:21.349Z,2.01
2023-05-13T15:20:25.862Z,1.96
2023-05-13T15:25:31.290Z,1.69
2023-05-13T15:30:37.344Z,1.44
2023-05-13T15:35:43.716Z,1.42
2023-05-13T15:40:51.223Z,1.33
2023-05-13T15:45:57.260Z,1.08
2023-05-13T15:51:03.114Z,1.02
2023-05-13T15:56:07.899Z,0.78
2023-05-13T16:01:12.186Z,0.77
2023-05-13T16:06:16.737Z,0.71
2023-05-13T16:11:20.824Z,0.53
2023-05-13T16:16:25.202Z,0.40
2023-05-13T16:21:30.474Z,0.30
2023-05-13T16:26:34.625Z,0.18
2023-05-13T16:31:38.886Z,-0.10
2023-05-13T16:36:43.201Z,-0.17
2023-05-13T16:41:47.155Z,-0.45
2023-05-13T16:46:51.269Z,-0.58
2023-05-13T16:51:56.991Z,-0.61
2023-05-13T16:57:01.270Z,-0.82
2023-05-13T17:02:05.785Z,-0.86
2023-05-13T17:07:13.792Z,-0.83
2023-05-13T17:12:17.842Z,-0.83
2023-05-13T17:17:22.013Z,-0.93
2023-05-13T17:22:28.640Z,-0.93
2023-05-13T17:27:32.683Z,-1.03
2023-05-13T17:32:39.365Z,-1.14
2023-05-13T17:37:43.604Z,-1.27
2023-05-13T17:42:47.669Z,-1.40
2023-05-13T17:47:52.108Z,-1.52
2023-05-13T17:52:56.678Z,-1.61
2023-05-13T17:58:01.242Z,-1.68
2023-05-13T18:03:11.637Z,-1.78
2023-05-13T18:08:16.022Z,-1.82
2023-05-13T18:13:20.058Z,-1.94
2023-05-13T18:18:24.286Z,-2.00
2023-05-13T18:23:28.400Z,-2.29
2023-05-13T18:28:33.730Z,-2.15
2023-05-13T18:33:37.669Z,-2.18
2023-05-13T18:38:41.993Z,-2.27
2023-05-13T18:43:46.366Z,-2.37
2023-05-13T18:48:50.376Z,-2.47
2023-05-13T18:53:54.556Z,-2.62
2023-05-13T18:58:58.933Z,-2.56
2023-05-13T19:04:03.853Z,-2.64
2023-05-13T19:09:08.142Z,-2.58
2023-05-13T19:14:12.160Z,-2.91
2023-05-13T19:19:17.916Z,-2.74
2023-05-13T19:24:21.911Z,-2.82
2023-05-13T19:29:26.178Z,-2.92
2023-05-13T19:34:30.123Z,-2.95
2023-05-13T19:39:34.208Z,-3.01
2023-05-13T19:44:38.155Z,-2.94
2023-05-13T19:49:42.173Z,-3.05
2023-05-13T19:54:46.142Z,-3.16
2023-05-13T19:59:50.479Z,-3.10
2023-05-13T20:04:54.675Z,-3.12
2023-05-13T20:09:58.527Z,-3.23
2023-05-13T20:15:04.146Z,-3.34
2023-05-13T20:20:09.564Z,-3.44
2023-05-13T20:25:13.738Z,-3.36
2023-05-13T20:30:17.881Z,-3.44
2023-05-13T20:35:21.913Z,-3.48
2023-05-13T20:40:26.098Z,-3.90
2023-05-13T20:45:30.269Z,-3.44
2023-05-13T20:50:34.401Z,-3.52
2023-05-13T20:55:38.230Z,-3.56
2023-05-13T21:00:42.372Z,-3.68
2023-05-13T21:05:46.620Z,-3.76
2023-05-13T21:10:50.420Z,-3.99
2023-05-13T21:15:54.466Z,-3.92
2023-05-13T21:20:58.875Z,-3.98
2023-05-13T21:26:08.809Z,-3.94
2023-05-13T21:31:12.889Z,-3.97
2023-05-13T21:36:17.172Z,-4.01
2023-05-13T21:41:22.573Z,-4.04
2023-05-13T21:46:26.753Z,-4.16
2023-05-13T21:51:30.573Z,-4.00
2023-05-13T21:56:34.602Z,-4.00
2023-05-13T22:01:38.613Z,-3.98
2023-05-13T22:06:42.873Z,-3.96
2023-05-13T22:11:46.934Z,-3.90
2023-05-13T22:17:04.753Z,-3.92
2023-05-13T22:22:12.308Z,-3.92
2023-05-13T22:27:16.504Z,-3.84
2023-05-13T22:32:20.361Z,-3.95
2023-05-13T22:37:24.707Z,-3.87
2023-05-13T22:42:28.928Z,-3.67
2023-05-13T22:47:33.111Z,-3.37
2023-05-13T22:52:37.125Z,-3.05
2023-05-13T22:57:41.080Z,-2.93
2023-05-13T23:02:45.400Z,-2.99
2023-05-13T23:07:49.343Z,-2.93
2023-05-13T23:12:53.411Z,-3.19
2023-05-13T23:17:57.417Z,-2.48
2023-05-13T23:23:01.298Z,-2.05
2023-05-13T23:28:05.395Z,-1.78
2023-05-13T23:33:09.481Z,-1.70
2023-05-13T23:38:13.474Z,-1.61
2023-05-13T23:43:17.738Z,-1.70
2023-05-13T23:48:21.686Z,-1.51
2023-05-13T23:53:26.549Z,-1.39
2023-05-13T23:58:30.380Z,-1.22
